Aeroporto :
LOGIN :

Iscrizione | Disclaimer

   EN    FR    IT 

 










Sommario :    VFR   VFR Marginale   IFR   IFR Intensivo   IFR Molto Intensivo
Visibilità : 
Base nubi : 
>= 8 km
>= 3000ft
5 / 8 km
1000 / 3000 ft
1500m / 5 km
500 / 1000 ft
800 / 1500m
200 / 500 ft
< 800m
< 200 ft
Simboli :   Temporali  Nebbia  Neve Forte  Precipitazioni Forti  Vento > 20 kt
SIGMETs :   Varie  Temporali  Ghiacco  Turbolenza  Onda orograficha  Ceneri Vulcaniche






- Altitudine del aeroporto : 463 ft
- Codice IATA : SZY
- AEROPORTO CHIUSO.


EPSY - Szczytno

ULTIMO METAR :
  • 270230Z 23004KT 9999 SCT017 BKN037 M01/M01 Q0995

METARs OBSOLETI :
  • 270200Z 23006KT 9999 BKN012 00/M01 Q0995
  • 270130Z 24006KT 9999 BKN014 00/M01 Q0995
  • 270100Z 23006KT 9999 SCT017 00/M01 Q0994
  • 270030Z 23006KT 9999 FEW019 00/M01 Q0994
  • 270000Z 24007KT CAVOK 00/M01 Q0994
  • 262330Z 25007KT CAVOK 01/M01 Q0994

TAF TAF EPSY
Valido dal 27 a 00 ore il 27 a 09 ore UTC


262330Z 2700/2709 25005KT CAVOK
PROB40
TEMPO 2700/2709 6000 -SHRA BKN013 BKN020CB
PROB30
TEMPO 2700/2706 4000 SHRASN BKN008 BKN015CB



MetMap, La meteo Aeronautica in un colpo d'occhio ! - Copyright ORBIFLY Dicembre 2007 - Disclaimer

ORBIFLY MET'MAP TEAM :

Programmazione e sviluppo : Alexandra Zaïnal
Concezione : Baudouin d'Aumeries
Aiuto per la programmazione : Marc-Olivier Méhu
Supporto tecnico e logistico : Manuel Goepfert
Aiuto per la traduzione : Arnaldo La Scala

Contatto : metmap@orbifly.com




FONTI E CREDITI :

   NOAA